Time;durP1;ratioP1;P1;durP2;ratioP2;P2;SDS_P1;SDS_P2;PMS_P1;PMS_P2;Temp;Humidity;BMP_temperature;BMP_pressure;BME280_temperature;BME280_humidity;BME280_pressure;Samples;Min_cycle;Max_cycle;Signal;HPM_P1;HPM_P2
2022/02/23 00:01:41;;;;;;;7.03;3.40;;;;;;;0.68;83.59;98645.39;1768540;80;20902;-65
2022/02/23 00:04:08;;;;;;;9.23;3.60;;;;;;;0.72;83.63;98646.98;1772697;80;21934;-65
2022/02/23 00:06:35;;;;;;;10.87;4.23;;;;;;;0.74;83.66;98632.38;1776621;80;20928;-63
2022/02/23 00:09:03;;;;;;;9.38;3.90;;;;;;;0.76;83.68;98633.20;1776555;80;20909;-65
2022/02/23 00:11:30;;;;;;;10.80;4.42;;;;;;;0.80;83.74;98637.36;1778404;78;20940;-65
2022/02/23 00:13:57;;;;;;;14.50;3.92;;;;;;;0.80;83.67;98624.52;1755209;80;21538;-65
2022/02/23 00:16:24;;;;;;;9.97;3.70;;;;;;;0.82;83.71;98617.62;1772467;80;21099;-65
2022/02/23 00:18:50;;;;;;;11.03;4.17;;;;;;;0.84;83.77;98623.54;1776088;80;21095;-65
2022/02/23 00:21:17;;;;;;;13.10;4.20;;;;;;;0.86;83.79;98617.92;1771759;79;20947;-65
2022/02/23 00:23:45;;;;;;;9.28;3.75;;;;;;;0.88;83.76;98607.17;1777296;79;21110;-65
2022/02/23 00:26:13;;;;;;;;;;;;;;;0.91;83.86;98605.81;1780636;78;21054;-66
2022/02/23 00:28:39;;;;;;;11.68;4.78;;;;;;;0.92;83.84;98603.63;1771755;80;20988;-66
2022/02/23 00:31:06;;;;;;;11.68;4.40;;;;;;;0.92;83.85;98597.20;1774538;79;21010;-66
2022/02/23 00:33:33;;;;;;;12.53;4.50;;;;;;;0.92;83.92;98592.51;1794476;78;20965;-66
2022/02/23 00:36:00;;;;;;;15.98;4.50;;;;;;;0.94;83.94;98589.02;1795480;78;20950;-65
2022/02/23 00:38:26;;;;;;;13.37;4.03;;;;;;;0.97;83.98;98582.95;1802396;78;21005;-66
2022/02/23 00:40:53;;;;;;;10.18;3.90;;;;;;;0.97;83.98;98573.52;1796821;78;21410;-65
2022/02/23 00:43:20;;;;;;;11.48;4.75;;;;;;;0.98;84.00;98572.65;1793258;78;20930;-65
2022/02/23 00:45:47;;;;;;;11.13;4.53;;;;;;;1.01;84.03;98568.70;1798585;78;20927;-65
2022/02/23 00:48:13;;;;;;;13.57;4.47;;;;;;;1.03;84.09;98566.91;1796147;78;20993;-65
2022/02/23 00:50:40;;;;;;;10.88;4.28;;;;;;;1.05;84.08;98556.16;1800666;78;20927;-65
2022/02/23 00:53:07;;;;;;;12.63;4.20;;;;;;;1.08;84.11;98555.23;1798620;78;22240;-65
2022/02/23 00:55:34;;;;;;;12.33;5.08;;;;;;;1.08;84.10;98558.64;1796913;78;21037;-65
2022/02/23 00:58:00;;;;;;;14.10;4.42;;;;;;;1.07;84.16;98546.69;1795503;78;20939;-65
2022/02/23 01:00:27;;;;;;;16.32;4.95;;;;;;;1.09;84.20;98552.64;1800754;78;21790;-65
2022/02/23 01:02:55;;;;;;;12.67;4.40;;;;;;;1.13;84.27;98548.24;1794207;78;21587;-65
2022/02/23 01:05:22;;;;;;;;;;;;;;;1.16;84.23;98547.31;1802033;78;21060;-65
2022/02/23 01:07:49;;;;;;;12.07;4.20;;;;;;;1.14;84.25;98538.80;1791502;78;20135;-66
2022/02/23 01:10:16;;;;;;;15.30;4.50;;;;;;;1.15;84.31;98537.89;1800440;78;21011;-66
2022/02/23 01:12:42;;;;;;;14.33;5.08;;;;;;;1.15;84.31;98530.19;1792823;78;20940;-65
2022/02/23 01:15:10;;;;;;;14.35;4.83;;;;;;;1.16;84.37;98524.17;1795544;78;21555;-65
2022/02/23 01:17:38;;;;;;;;;;;;;;;1.17;84.43;98518.14;1804395;78;21050;-65
2022/02/23 01:20:07;;;;;;;18.32;4.97;;;;;;;1.18;84.48;98517.27;1794921;78;20100;-65
2022/02/23 01:22:34;;;;;;;12.37;4.45;;;;;;;1.17;84.44;98508.69;1799292;78;21041;-65
2022/02/23 01:25:03;;;;;;;11.25;3.80;;;;;;;1.17;84.46;98509.14;1795847;78;20991;-65
2022/02/23 01:27:30;;;;;;;13.25;4.47;;;;;;;1.16;84.44;98507.47;1795683;78;21056;-65
2022/02/23 01:29:58;;;;;;;16.15;4.12;;;;;;;1.14;84.51;98502.80;1799292;78;20979;-65
2022/02/23 01:32:25;;;;;;;13.83;3.92;;;;;;;1.11;84.55;98491.71;1783933;78;20919;-65
2022/02/23 01:34:52;;;;;;;;;;;;;;;1.09;84.60;98479.37;1785067;79;21507;-65
2022/02/23 01:37:18;;;;;;;13.18;4.83;;;;;;;1.08;84.66;98478.95;1787646;79;20299;-65
2022/02/23 01:39:45;;;;;;;14.15;4.62;;;;;;;1.05;84.70;98471.33;1786093;79;21026;-65
2022/02/23 01:42:12;;;;;;;10.57;3.93;;;;;;;1.02;84.73;98464.99;1784175;78;21402;-67
2022/02/23 01:44:38;;;;;;;10.27;4.10;;;;;;;1.03;84.81;98467.95;1787684;79;20952;-66
2022/02/23 01:47:06;;;;;;;13.55;4.40;;;;;;;1.01;84.82;98467.17;1792498;79;21025;-66
2022/02/23 01:49:33;;;;;;;12.85;4.05;;;;;;;0.96;84.76;98463.89;1786007;79;20987;-66
2022/02/23 01:52:00;;;;;;;14.43;4.40;;;;;;;0.93;84.81;98456.27;1784660;79;20971;-66
2022/02/23 01:54:26;;;;;;;11.57;4.57;;;;;;;0.90;84.87;98446.08;1787492;78;21279;-66
2022/02/23 01:56:53;;;;;;;12.15;4.30;;;;;;;0.88;84.95;98444.82;1795852;78;20926;-65
2022/02/23 01:59:20;;;;;;;12.47;3.80;;;;;;;0.88;85.02;98438.84;1781821;79;21522;-65
2022/02/23 02:01:47;;;;;;;11.85;4.17;;;;;;;0.87;85.12;98435.89;1793133;78;20987;-66
2022/02/23 02:04:13;;;;;;;9.58;4.15;;;;;;;0.84;85.09;98434.66;1790351;78;21570;-65
2022/02/23 02:06:40;;;;;;;15.70;9.08;;;;;;;0.83;85.17;98435.56;1800524;79;21034;-66
2022/02/23 02:09:07;;;;;;;12.58;4.90;;;;;;;0.83;85.28;98424.00;1790375;78;21634;-65
2022/02/23 02:11:34;;;;;;;14.25;4.70;;;;;;;0.84;85.29;98425.67;1790953;78;21039;-65
2022/02/23 02:14:00;;;;;;;16.77;5.33;;;;;;;0.84;85.36;98420.53;1798095;79;21572;-65
2022/02/23 02:16:27;;;;;;;8.90;4.23;;;;;;;0.83;85.34;98416.29;1784845;77;20962;-65
2022/02/23 02:18:54;;;;;;;11.63;5.08;;;;;;;0.81;85.40;98418.05;1789286;79;22399;-66
2022/02/23 02:21:20;;;;;;;13.10;4.80;;;;;;;0.80;85.44;98408.67;1792921;79;21018;-66
2022/02/23 02:23:47;;;;;;;11.03;4.30;;;;;;;0.80;85.50;98411.24;1784068;79;21484;-66
2022/02/23 02:26:14;;;;;;;9.68;4.03;;;;;;;0.80;85.57;98408.67;1786743;79;20938;-66
2022/02/23 02:28:41;;;;;;;8.68;4.45;;;;;;;0.81;85.64;98402.64;1787662;79;20999;-66
2022/02/23 02:31:08;;;;;;;12.53;4.92;;;;;;;0.81;85.65;98402.64;1796304;79;22394;-65
2022/02/23 02:33:35;;;;;;;8.60;4.53;;;;;;;0.81;85.67;98397.50;1763843;79;21074;-65
2022/02/23 02:36:03;;;;;;;11.70;4.63;;;;;;;0.83;85.73;98393.16;1772993;79;21065;-65
2022/02/23 02:38:29;;;;;;;;;;;;;;;0.84;85.75;98394.84;1761909;79;20994;-65
2022/02/23 02:40:56;;;;;;;9.20;3.92;;;;;;;0.82;85.77;98391.04;1762085;78;20181;-65
2022/02/23 02:43:22;;;;;;;6.87;4.00;;;;;;;0.80;85.77;98393.25;1761563;79;21025;-65
2022/02/23 02:45:49;;;;;;;11.12;4.75;;;;;;;0.78;85.78;98393.73;1760919;79;21010;-65
2022/02/23 02:48:16;;;;;;;10.75;4.53;;;;;;;0.74;85.78;98389.59;1760173;80;20974;-65
2022/02/23 02:50:43;;;;;;;7.28;3.98;;;;;;;0.72;85.77;98381.07;1755332;79;21062;-65
2022/02/23 02:53:10;;;;;;;9.75;3.50;;;;;;;0.72;85.93;98384.92;1760142;79;21037;-65
2022/02/23 02:55:39;;;;;;;7.53;3.67;;;;;;;0.73;85.93;98382.74;1765757;78;21634;-65
2022/02/23 02:58:06;;;;;;;7.12;3.52;;;;;;;0.72;85.97;98372.08;1767456;79;20983;-66
2022/02/23 03:00:33;;;;;;;5.15;3.25;;;;;;;0.71;86.01;98372.98;1764981;79;20999;-66
2022/02/23 03:03:00;;;;;;;7.47;3.70;;;;;;;0.71;86.01;98376.83;1760497;79;21163;-66
2022/02/23 03:05:29;;;;;;;6.22;3.42;;;;;;;0.68;85.98;98370.50;1755299;79;20950;-65
2022/02/23 03:07:55;;;;;;;7.03;3.47;;;;;;;0.66;86.07;98368.80;1761170;79;21499;-65
2022/02/23 03:10:22;;;;;;;6.33;3.20;;;;;;;0.64;85.98;98372.29;1768131;80;20970;-65
2022/02/23 03:12:48;;;;;;;6.92;3.10;;;;;;;0.60;86.10;98359.98;1758114;79;21519;-65
2022/02/23 03:15:15;;;;;;;6.53;3.33;;;;;;;0.60;86.16;98358.70;1763785;78;20904;-65
2022/02/23 03:17:42;;;;;;;6.05;3.37;;;;;;;0.60;86.21;98363.84;1763055;80;21153;-65
2022/02/23 03:20:10;;;;;;;4.85;2.90;;;;;;;0.60;86.29;98376.69;1757360;80;21877;-66
2022/02/23 03:22:37;;;;;;;4.30;2.55;;;;;;;0.60;86.36;98358.70;1758983;80;20998;-65
2022/02/23 03:25:06;;;;;;;4.58;2.55;;;;;;;0.60;86.49;98356.58;1765052;79;21535;-65
2022/02/23 03:27:34;;;;;;;7.47;3.17;;;;;;;0.59;86.73;98359.60;1753620;80;21536;-66
2022/02/23 03:30:00;;;;;;;5.22;3.40;;;;;;;0.62;86.78;98359.51;1771597;78;20985;-65
2022/02/23 03:32:27;;;;;;;7.28;2.98;;;;;;;0.65;86.82;98367.58;1770090;78;21308;-65
2022/02/23 03:34:54;;;;;;;5.72;3.45;;;;;;;0.69;86.86;98359.33;1785429;79;21579;-65
2022/02/23 03:37:20;;;;;;;6.10;3.10;;;;;;;0.72;86.80;98364.38;1783375;79;20938;-65
2022/02/23 03:39:47;;;;;;;4.15;2.42;;;;;;;0.73;86.89;98366.91;1794795;79;20980;-65
2022/02/23 03:42:14;;;;;;;7.47;2.90;;;;;;;0.76;87.02;98372.41;1789520;78;21013;-65
2022/02/23 03:44:40;;;;;;;6.78;3.15;;;;;;;0.78;87.10;98362.90;1794449;78;22314;-66
2022/02/23 03:47:08;;;;;;;4.12;2.45;;;;;;;0.80;87.09;98359.85;1787812;79;21002;-65
2022/02/23 03:49:35;;;;;;;6.12;2.87;;;;;;;0.82;87.09;98367.08;1787493;78;21021;-66
2022/02/23 03:52:02;;;;;;;3.63;2.47;;;;;;;0.83;87.18;98372.61;1794117;78;20903;-65
2022/02/23 03:54:29;;;;;;;3.72;2.42;;;;;;;0.81;87.39;98371.38;1784295;79;21437;-65
2022/02/23 03:56:56;;;;;;;4.47;2.53;;;;;;;0.87;87.28;98369.08;1801628;79;21122;-66
2022/02/23 03:59:22;;;;;;;3.43;2.07;;;;;;;0.89;87.34;98382.25;1794797;78;21078;-65
2022/02/23 04:01:49;;;;;;;4.85;1.50;;;;;;;0.91;87.36;98380.09;1789668;78;21047;-65
2022/02/23 04:04:17;;;;;;;3.58;1.45;;;;;;;0.94;87.43;98375.70;1790361;78;21051;-65
2022/02/23 04:06:45;;;;;;;2.33;1.30;;;;;;;0.99;87.52;98381.55;1792246;79;21053;-65
2022/02/23 04:09:13;;;;;;;2.50;1.12;;;;;;;1.08;87.64;98388.14;1790173;79;21298;-65
2022/02/23 04:11:40;;;;;;;2.75;1.17;;;;;;;1.16;87.68;98390.48;1740118;80;21610;-66
2022/02/23 04:14:08;;;;;;;1.85;1.20;;;;;;;1.23;87.73;98391.97;1788570;78;21026;-66
2022/02/23 04:16:35;;;;;;;1.77;1.05;;;;;;;1.32;87.91;98396.84;1785634;78;21514;-66
2022/02/23 04:19:05;;;;;;;2.30;1.12;;;;;;;1.39;87.83;98406.03;1790525;78;21003;-65
2022/02/23 04:21:32;;;;;;;2.22;1.10;;;;;;;1.44;87.97;98404.17;1800313;79;21286;-65
2022/02/23 04:23:59;;;;;;;1.77;0.65;;;;;;;1.50;88.16;98405.25;1789246;78;21510;-65
2022/02/23 04:26:27;;;;;;;3.20;1.67;;;;;;;1.58;88.26;98413.19;1782858;79;20917;-65
2022/02/23 04:28:54;;;;;;;6.15;1.30;;;;;;;1.63;88.36;98403.59;1790109;79;21019;-65
2022/02/23 04:31:21;;;;;;;9.25;1.62;;;;;;;1.69;88.41;98414.97;1784091;78;20952;-66
2022/02/23 04:33:47;;;;;;;5.03;1.20;;;;;;;1.74;88.43;98406.66;1786462;78;21083;-66
2022/02/23 04:36:14;;;;;;;6.37;2.10;;;;;;;1.80;88.76;98409.03;1786657;78;20923;-65
2022/02/23 04:38:41;;;;;;;8.60;1.87;;;;;;;1.86;88.81;98403.67;1792129;79;21605;-66
2022/02/23 04:41:08;;;;;;;12.37;2.00;;;;;;;1.92;88.90;98424.06;1791345;78;20986;-66
2022/02/23 04:43:36;;;;;;;9.88;2.30;;;;;;;1.97;88.98;98422.18;1793250;78;21025;-65
2022/02/23 04:46:06;;;;;;;;;;;;;;;2.01;88.92;98423.75;1790193;79;21105;-66
2022/02/23 04:48:33;;;;;;;15.78;3.27;;;;;;;2.03;89.14;98436.58;1791621;78;20120;-66
2022/02/23 04:50:59;;;;;;;15.50;4.03;;;;;;;2.07;89.13;98437.31;1789927;78;21091;-66
2022/02/23 04:53:26;;;;;;;24.70;5.17;;;;;;;2.11;89.10;98441.48;1789961;78;20974;-66
2022/02/23 04:55:53;;;;;;;15.88;4.15;;;;;;;2.15;89.18;98436.61;1795471;78;21162;-66
2022/02/23 04:58:20;;;;;;;22.17;4.67;;;;;;;2.17;88.97;98438.70;1794136;78;22218;-66
2022/02/23 05:00:47;;;;;;;22.22;4.95;;;;;;;2.19;89.28;98431.77;1792609;79;21180;-65
2022/02/23 05:03:14;;;;;;;25.55;4.70;;;;;;;2.20;89.24;98442.45;1792815;79;20983;-65
2022/02/23 05:05:42;;;;;;;26.68;4.62;;;;;;;2.23;89.26;98451.36;1789596;78;21052;-65
2022/02/23 05:08:09;;;;;;;28.77;4.80;;;;;;;2.26;89.44;98455.57;1791051;79;20990;-65
2022/02/23 05:10:36;;;;;;;19.03;4.40;;;;;;;2.27;89.59;98452.95;1793885;78;21224;-65
2022/02/23 05:13:03;;;;;;;20.32;4.08;;;;;;;2.29;89.47;98465.77;1794703;78;20970;-66
2022/02/23 05:15:30;;;;;;;26.27;5.47;;;;;;;2.27;89.51;98465.84;1788790;78;21633;-65
2022/02/23 05:17:57;;;;;;;25.23;4.50;;;;;;;2.27;89.45;98465.84;1794756;78;21102;-65
2022/02/23 05:20:23;;;;;;;18.30;4.17;;;;;;;2.30;89.47;98463.16;1786796;78;21265;-65
2022/02/23 05:22:50;;;;;;;25.17;4.92;;;;;;;2.32;89.44;98479.38;1788941;78;21658;-66
2022/02/23 05:25:17;;;;;;;33.58;6.25;;;;;;;2.32;89.48;98481.95;1790334;78;20908;-66
2022/02/23 05:27:45;;;;;;;26.87;5.03;;;;;;;2.31;89.52;98482.85;1793800;78;21021;-66
2022/02/23 05:30:12;;;;;;;;;;;;;;;2.32;89.53;98495.28;1792837;79;21587;-66
2022/02/23 05:32:42;;;;;;;;;;;;;;;2.32;89.87;98490.97;1788436;78;20441;-65
2022/02/23 05:35:09;;;;;;;27.52;5.17;;;;;;;2.32;89.73;98494.83;1769586;80;21265;-65
2022/02/23 05:37:36;;;;;;;;;;;;;;;2.32;89.72;98487.10;1776871;79;21596;-66
2022/02/23 05:40:06;;;;;;;18.45;4.87;;;;;;;2.33;89.81;98490.09;1769288;80;20152;-65
2022/02/23 05:42:34;;;;;;;27.35;4.83;;;;;;;2.34;89.76;98503.35;1773018;80;20912;-65
2022/02/23 05:45:01;;;;;;;29.52;5.40;;;;;;;2.36;89.79;98496.42;1775056;79;20978;-65
2022/02/23 05:47:27;;;;;;;24.90;4.65;;;;;;;2.36;89.79;98502.86;1765664;79;21149;-65
2022/02/23 05:49:55;;;;;;;19.45;4.17;;;;;;;2.37;90.03;98499.39;1767683;80;20940;-65
2022/02/23 05:52:21;;;;;;;;;;;;;;;2.38;90.06;98516.55;1774983;79;21031;-64
2022/02/23 05:54:48;;;;;;;16.73;4.95;;;;;;;2.39;90.01;98516.92;1770680;79;20879;-64
2022/02/23 05:57:16;;;;;;;29.15;6.33;;;;;;;2.42;90.06;98509.55;1777494;79;21000;-65
2022/02/23 05:59:42;;;;;;;26.73;5.22;;;;;;;2.45;90.11;98508.98;1777978;79;21084;-65
2022/02/23 06:02:09;;;;;;;19.62;4.62;;;;;;;2.48;90.29;98513.20;1779286;78;21552;-64
2022/02/23 06:04:36;;;;;;;20.72;4.62;;;;;;;2.53;90.17;98510.48;1780310;79;20994;-65
2022/02/23 06:07:05;;;;;;;27.42;5.60;;;;;;;2.54;90.15;98503.13;1775246;79;21069;-64
2022/02/23 06:09:32;;;;;;;21.93;5.45;;;;;;;2.54;90.11;98523.30;1779732;79;20990;-66
2022/02/23 06:12:01;;;;;;;20.80;4.70;;;;;;;2.55;90.16;98518.97;1775200;79;21602;-66
2022/02/23 06:14:31;;;;;;;24.27;5.67;;;;;;;2.57;90.18;98524.92;1778490;79;20935;-65
2022/02/23 06:16:58;;;;;;;21.55;4.65;;;;;;;2.60;90.24;98523.53;1775220;79;21042;-65
2022/02/23 06:19:24;;;;;;;27.20;5.37;;;;;;;2.64;90.23;98528.98;1773800;79;21098;-65
2022/02/23 06:21:51;;;;;;;22.15;5.25;;;;;;;2.65;90.27;98516.48;1777024;79;22294;-63
2022/02/23 06:24:18;;;;;;;20.73;5.33;;;;;;;2.69;90.32;98543.41;1778149;79;23375;-63
2022/02/23 06:26:45;;;;;;;26.02;5.42;;;;;;;2.70;90.33;98550.69;1772478;79;21018;-63
2022/02/23 06:29:14;;;;;;;17.07;4.47;;;;;;;2.73;90.35;98549.74;1776266;79;21002;-63
2022/02/23 06:31:44;;;;;;;16.85;4.67;;;;;;;2.74;90.37;98547.55;1770262;79;21066;-64
2022/02/23 06:34:12;;;;;;;26.77;4.62;;;;;;;2.76;90.42;98550.47;1770678;79;21057;-64
2022/02/23 06:36:39;;;;;;;23.30;5.20;;;;;;;2.78;90.39;98566.73;1732056;80;21097;-65
2022/02/23 06:39:06;;;;;;;17.52;4.22;;;;;;;2.80;90.43;98561.09;1734434;80;21064;-64
2022/02/23 06:41:34;;;;;;;18.30;4.77;;;;;;;2.84;90.40;98572.96;1741319;82;21001;-64
2022/02/23 06:44:02;;;;;;;21.42;4.70;;;;;;;2.87;90.36;98565.12;1715175;82;21534;-64
2022/02/23 06:46:31;;;;;;;18.02;4.03;;;;;;;2.89;90.37;98581.38;1708242;83;21572;-64
2022/02/23 06:48:58;;;;;;;20.05;4.05;;;;;;;2.91;90.40;98587.34;1736262;80;22065;-63
2022/02/23 06:51:26;;;;;;;25.45;4.58;;;;;;;2.95;90.34;98602.70;1730909;80;20986;-64
2022/02/23 06:53:52;;;;;;;20.00;4.65;;;;;;;2.93;90.27;98594.17;1745384;79;21477;-64
2022/02/23 06:56:19;;;;;;;15.65;4.30;;;;;;;2.93;90.29;98596.30;1774092;79;20936;-63
2022/02/23 06:58:49;;;;;;;18.85;3.85;;;;;;;2.94;90.26;98607.45;1764623;79;21562;-63
2022/02/23 07:01:21;;;;;;;23.65;4.35;;;;;;;2.96;90.28;98601.80;1769718;79;21082;-63
2022/02/23 07:03:53;;;;;;;22.10;4.78;;;;;;;2.96;90.28;98600.51;1729442;80;21055;-63
2022/02/23 07:06:21;;;;;;;16.70;3.65;;;;;;;2.99;90.26;98601.69;1773618;79;21021;-63
2022/02/23 07:08:51;;;;;;;18.52;4.37;;;;;;;3.00;90.15;98602.10;1764885;79;21152;-63
2022/02/23 07:11:20;;;;;;;22.62;4.67;;;;;;;3.01;90.20;98616.67;1771297;79;20999;-66
2022/02/23 07:13:47;;;;;;;17.98;4.42;;;;;;;3.06;90.21;98613.49;1771605;79;21578;-64
2022/02/23 07:16:15;;;;;;;19.10;4.67;;;;;;;3.07;90.06;98625.48;1768539;79;21564;-62
2022/02/23 07:18:42;;;;;;;21.07;4.78;;;;;;;3.09;90.04;98627.56;1775153;79;21057;-65
2022/02/23 07:21:09;;;;;;;25.43;4.57;;;;;;;3.10;90.03;98628.79;1775184;79;21795;-63
2022/02/23 07:23:37;;;;;;;17.55;3.87;;;;;;;3.11;89.94;98621.92;1767682;79;20951;-65
2022/02/23 07:26:04;;;;;;;15.90;4.53;;;;;;;3.12;89.96;98630.88;1768858;79;21092;-63
2022/02/23 07:28:31;;;;;;;18.15;4.22;;;;;;;3.14;89.92;98630.84;1773414;79;20986;-63
2022/02/23 07:30:58;;;;;;;19.23;3.77;;;;;;;3.16;89.87;98620.00;1776100;79;21593;-63
2022/02/23 07:33:25;;;;;;;14.98;4.40;;;;;;;3.17;89.83;98629.44;1761521;79;21036;-63
2022/02/23 07:35:53;;;;;;;17.50;5.03;;;;;;;3.19;89.82;98640.52;1796133;79;21057;-62
2022/02/23 07:38:20;;;;;;;14.70;4.05;;;;;;;3.22;89.84;98627.55;1791627;79;21099;-63
2022/02/23 07:40:47;;;;;;;14.00;3.22;;;;;;;3.24;89.63;98648.95;1791277;79;21568;-63
2022/02/23 07:43:14;;;;;;;18.07;4.97;;;;;;;3.24;89.51;98642.50;1787952;79;21658;-64
2022/02/23 07:45:41;;;;;;;17.25;4.67;;;;;;;3.22;89.60;98645.61;1789372;79;20931;-64
2022/02/23 07:48:09;;;;;;;15.93;4.25;;;;;;;3.23;89.56;98642.12;1789935;79;21081;-63
2022/02/23 07:50:38;;;;;;;14.68;3.45;;;;;;;3.24;89.56;98659.27;1787230;79;21585;-64
2022/02/23 07:53:06;;;;;;;13.13;3.42;;;;;;;3.24;89.46;98659.27;1787270;79;21612;-63
2022/02/23 07:55:33;;;;;;;16.97;3.47;;;;;;;3.25;89.49;98668.71;1793527;79;21025;-66
2022/02/23 07:58:03;;;;;;;7.43;2.43;;;;;;;3.29;89.45;98683.17;1790609;79;21054;-63
2022/02/23 08:00:28;;;;;;;15.80;3.65;;;;;;;3.30;89.15;98673.69;1784574;79;20936;-63
2022/02/23 08:02:55;;;;;;;11.63;3.33;;;;;;;3.31;89.04;98668.50;1786961;79;21230;-64
2022/02/23 08:05:24;;;;;;;18.48;3.90;;;;;;;3.34;88.96;98663.23;1788331;79;21013;-66
2022/02/23 08:07:55;;;;;;;17.85;3.45;;;;;;;3.36;88.87;98683.37;1720736;80;20939;-66
2022/02/23 08:10:25;;;;;;;13.40;2.95;;;;;;;3.36;88.78;98676.05;1746604;81;20971;-65
2022/02/23 08:12:55;;;;;;;12.58;3.30;;;;;;;3.38;88.86;98682.47;1718279;82;21073;-65
2022/02/23 08:20:52;;;;;;;12.47;3.05;;;;;;;3.36;88.44;98674.34;1719891;81;21243;-64
2022/02/23 08:23:20;;;;;;;13.65;2.83;;;;;;;3.41;88.22;98703.00;1727213;81;21019;-65
2022/02/23 08:25:48;;;;;;;15.93;3.25;;;;;;;3.44;88.13;98705.47;1729246;81;20980;-65
2022/02/23 08:28:16;;;;;;;15.48;2.80;;;;;;;3.48;88.16;98705.78;1726066;81;21106;-66
2022/02/23 08:30:43;;;;;;;9.35;2.58;;;;;;;3.51;87.73;98705.67;1729875;81;21073;-66
2022/02/23 08:33:10;;;;;;;18.02;3.08;;;;;;;3.54;87.88;98724.92;1725425;81;21492;-64
2022/02/23 08:35:37;;;;;;;18.67;3.15;;;;;;;3.54;87.66;98714.14;1731303;82;21026;-65
2022/02/23 08:38:04;;;;;;;10.72;2.20;;;;;;;3.54;87.75;98726.20;1758092;80;21011;-66
2022/02/23 08:40:34;;;;;;;10.30;2.77;;;;;;;3.56;87.76;98716.68;1757274;80;21064;-65
2022/02/23 08:43:01;;;;;;;10.70;2.72;;;;;;;3.59;87.10;98755.30;1754712;80;21469;-67
2022/02/23 08:45:28;;;;;;;11.17;3.07;;;;;;;3.63;86.36;98740.08;1755752;80;20916;-65
2022/02/23 08:47:54;;;;;;;7.03;2.08;;;;;;;3.62;86.02;98726.79;1751064;80;20964;-66
2022/02/23 08:50:21;;;;;;;5.33;2.00;;;;;;;3.62;86.39;98755.19;1765000;80;21073;-65
2022/02/23 08:52:49;;;;;;;10.23;2.60;;;;;;;3.59;85.90;98747.55;1765130;80;22268;-66
2022/02/23 08:55:15;;;;;;;11.10;2.55;;;;;;;3.60;86.50;98725.98;1759473;80;23358;-67
2022/02/23 08:57:43;;;;;;;10.60;2.52;;;;;;;3.60;86.17;98719.53;1756194;80;21049;-67
2022/02/23 09:00:11;;;;;;;11.03;2.12;;;;;;;3.63;86.07;98743.11;1751209;80;21571;-65
2022/02/23 09:02:37;;;;;;;9.98;2.20;;;;;;;3.64;84.64;98768.02;1756737;80;20986;-65
2022/02/23 09:05:08;;;;;;;7.80;2.60;;;;;;;3.71;85.90;98763.89;1757159;79;21524;-66
2022/02/23 09:07:38;;;;;;;10.10;1.98;;;;;;;3.76;85.51;98751.67;1756148;79;20988;-64
2022/02/23 09:10:06;;;;;;;11.38;2.20;;;;;;;3.79;85.28;98760.59;1754966;80;21639;-64
2022/02/23 09:12:33;;;;;;;8.98;2.47;;;;;;;3.85;85.11;98784.52;1760240;80;20965;-64
2022/02/23 09:15:00;;;;;;;11.88;2.90;;;;;;;3.85;84.95;98784.07;1736668;80;21107;-64
2022/02/23 09:17:28;;;;;;;7.92;2.00;;;;;;;3.87;85.01;98787.91;1740794;80;21454;-64
2022/02/23 09:19:55;;;;;;;10.30;2.42;;;;;;;3.86;84.93;98781.03;1735517;81;20934;-65
2022/02/23 09:22:22;;;;;;;8.85;3.00;;;;;;;3.83;84.80;98773.40;1754352;80;21627;-62
2022/02/23 10:48:59;;;;;;;16.82;3.12;;;;;;;3.63;83.61;98986.61;1867766;74;22104;-64
2022/02/23 10:51:30;;;;;;;15.85;3.50;;;;;;;3.65;83.43;98993.87;1824631;77;20993;-66
2022/02/23 10:54:10;;;;;;;7.90;2.37;;;;;;;3.74;83.28;99015.52;1824649;77;21186;-66
2022/02/23 10:56:44;;;;;;;11.83;2.60;;;;;;;3.76;82.73;98989.22;1819384;77;21471;-67
2022/02/23 10:59:23;;;;;;;11.03;2.90;;;;;;;3.80;83.17;99019.20;1818639;77;20976;-64
2022/02/23 11:01:51;;;;;;;12.63;2.90;;;;;;;3.78;82.19;99011.97;1821356;77;21013;-66
2022/02/23 11:04:25;;;;;;;10.60;2.45;;;;;;;3.81;82.63;99037.70;1816674;77;20945;-66
2022/02/23 11:06:55;;;;;;;7.53;2.12;;;;;;;3.78;82.38;99030.05;1825509;77;21044;-66
2022/02/23 11:09:19;;;;;;;17.27;3.62;;;;;;;3.84;82.37;99059.13;1826805;77;21547;-65
2022/02/23 11:11:50;;;;;;;14.30;2.62;;;;;;;3.88;82.49;99056.42;1825437;77;21047;-66
2022/02/23 11:14:19;;;;;;;10.58;2.55;;;;;;;3.93;82.51;99071.78;1823120;77;21167;-66
2022/02/23 11:16:48;;;;;;;8.95;2.20;;;;;;;3.93;81.95;99076.50;1818978;78;20984;-66
2022/02/23 11:19:17;;;;;;;12.40;2.72;;;;;;;4.00;82.23;99051.31;1822567;77;21009;-68
2022/02/23 11:21:47;;;;;;;15.08;2.27;;;;;;;3.96;81.91;99076.86;1824254;77;21078;-65
2022/02/23 11:24:14;;;;;;;12.05;2.62;;;;;;;3.92;81.77;99067.49;1820143;77;20999;-68
2022/02/23 11:26:42;;;;;;;12.00;2.80;;;;;;;3.88;81.93;99105.49;1824883;77;21036;-65
2022/02/23 11:29:23;;;;;;;7.35;1.62;;;;;;;3.86;81.88;99109.84;1825858;77;21016;-65
2022/02/23 11:31:53;;;;;;;7.28;2.22;;;;;;;3.84;81.26;99105.62;1824929;77;21855;-66
2022/02/23 11:34:26;;;;;;;4.37;1.40;;;;;;;3.87;81.77;99102.97;1826606;77;21031;-70
2022/02/23 11:36:54;;;;;;;8.30;1.87;;;;;;;3.88;80.96;99104.20;1820745;77;21538;-64
2022/02/23 11:39:26;;;;;;;11.65;2.55;;;;;;;3.92;81.49;99098.48;1822725;77;20992;-65
2022/02/23 11:41:58;;;;;;;10.80;2.55;;;;;;;3.91;81.36;99138.13;1823877;77;21033;-65
2022/02/23 11:44:30;;;;;;;8.28;2.30;;;;;;;3.89;81.15;99141.20;1789647;78;21081;-64
2022/02/23 11:47:21;;;;;;;11.08;2.35;;;;;;;3.91;81.06;99169.13;1825896;77;21008;-65
2022/02/23 11:49:54;;;;;;;9.30;2.25;;;;;;;3.92;81.12;99142.39;1829923;77;20940;-70
2022/02/23 11:52:42;;;;;;;6.28;1.85;;;;;;;3.94;81.33;99153.53;1828848;77;21540;-66
2022/02/23 11:55:21;;;;;;;10.05;1.52;;;;;;;3.95;80.80;99171.59;1819471;77;21046;-64
2022/02/23 11:57:58;;;;;;;10.95;2.62;;;;;;;3.89;79.75;99194.14;1786804;77;21933;-66
2022/02/23 12:01:02;;;;;;;11.20;1.90;;;;;;;3.90;80.28;99185.53;1825612;77;21568;-66
2022/02/23 12:03:32;;;;;;;8.53;2.62;;;;;;;3.91;80.71;99205.28;1631792;86;21068;-65
2022/02/23 12:06:03;;;;;;;9.55;2.10;;;;;;;3.91;80.69;99213.03;1636147;85;21592;-64
2022/02/23 12:08:40;;;;;;;11.50;2.40;;;;;;;3.91;80.92;99220.78;1648086;85;21100;-64
2022/02/23 12:11:18;;;;;;;8.50;1.72;;;;;;;3.94;81.05;99233.61;1636928;84;22277;-63
2022/02/23 12:13:58;;;;;;;8.28;2.37;;;;;;;3.91;80.99;99237.57;1628555;85;21055;-63
2022/02/23 12:16:47;;;;;;;12.18;2.33;;;;;;;3.91;80.71;99224.66;1635756;86;20996;-64
2022/02/23 12:19:11;;;;;;;10.75;2.00;;;;;;;3.92;80.85;99258.62;1660204;84;21016;-63
2022/02/23 12:21:42;;;;;;;11.78;1.72;;;;;;;3.89;80.78;99269.05;1626089;85;21079;-64
2022/02/23 12:24:19;;;;;;;9.80;2.58;;;;;;;3.92;80.73;99265.08;1626014;85;22039;-65
2022/02/23 12:26:53;;;;;;;8.73;2.10;;;;;;;3.92;80.95;99246.59;1621507;86;21632;-65
2022/02/23 12:29:28;;;;;;;7.78;1.95;;;;;;;3.90;80.87;99304.34;1633732;83;21107;-64
2022/02/23 12:32:06;;;;;;;10.50;2.62;;;;;;;3.89;80.67;99296.16;1628603;86;20983;-64
2022/02/23 12:34:39;;;;;;;7.53;2.02;;;;;;;3.90;80.79;99291.42;1633241;85;21029;-67
2022/02/23 12:37:10;;;;;;;9.73;2.20;;;;;;;3.85;80.60;99324.27;1627392;85;21644;-64
2022/02/23 12:39:38;;;;;;;11.45;2.50;;;;;;;3.85;80.86;99297.15;1643414;81;21103;-66
2022/02/23 12:42:08;;;;;;;3.10;0.90;;;;;;;3.84;80.76;99321.26;1704869;82;20976;-65
2022/02/23 12:44:58;;;;;;;8.03;1.45;;;;;;;3.81;80.49;99329.52;1685244;83;20949;-65
2022/02/23 12:47:30;;;;;;;6.40;1.95;;;;;;;3.76;80.37;99344.27;1714040;82;21028;-67
2022/02/23 12:50:02;;;;;;;5.65;1.82;;;;;;;3.74;80.30;99342.16;1685857;83;21119;-68
2022/02/23 12:52:32;;;;;;;5.37;1.40;;;;;;;3.71;80.09;99375.81;1687933;82;20966;-66
2022/02/23 12:55:09;;;;;;;6.37;1.92;;;;;;;3.70;79.32;99414.60;1692963;82;20988;-67
2022/02/23 12:57:52;;;;;;;10.00;2.22;;;;;;;3.64;79.20;99388.48;1722018;82;20970;-65
2022/02/23 13:00:27;;;;;;;8.23;1.95;;;;;;;3.69;79.72;99384.03;1715570;82;20945;-67
2022/02/23 13:02:56;;;;;;;8.90;2.05;;;;;;;3.63;79.52;99394.52;1714790;82;21075;-65
2022/02/23 13:05:25;;;;;;;10.13;2.20;;;;;;;3.65;80.03;99396.63;1714919;82;20989;-65
2022/02/23 13:07:53;;;;;;;6.80;2.25;;;;;;;3.64;80.35;99397.52;1712751;82;20987;-65
2022/02/23 13:10:21;;;;;;;5.03;1.52;;;;;;;3.64;80.18;99411.73;1723310;82;21118;-65
2022/02/23 13:12:58;;;;;;;5.33;1.90;;;;;;;3.64;79.48;99432.38;1709773;82;20993;-65
2022/02/23 13:15:34;;;;;;;11.60;1.30;;;;;;;3.63;79.68;99425.50;1709322;82;21609;-66